| Date | Time | Temp. (oF) | Dew Point (oF) | Rel. Hum. (%) | Press. (in.) | Wind Dir. | Wind Speed (mph) | Hourly Rainfall (in.) |
|
|---|---|---|---|---|---|---|---|---|---|
| 1 | 07/04 | 00:00 | 71 | 63 | 77 | 30.14 | SSW | 4 | 0.00 |
| 2 | 07/03 | 23:00 | 71 | 63 | 76 | 30.13 | S | 5 | 0.00 |
| 3 | 07/03 | 22:00 | 72 | 62 | 73 | 30.13 | S | 1 | 0.00 |
| 4 | 07/03 | 21:00 | 73 | 61 | 67 | 30.12 | SE | 3 | 0.00 |
| 5 | 07/03 | 20:00 | 76 | 62 | 63 | 30.10 | SSE | 5 | 0.00 |
| 6 | 07/03 | 19:00 | 77 | 60 | 58 | 30.10 | SSE | 9 | 0.00 |
| 7 | 07/03 | 18:00 | 77 | 61 | 60 | 30.10 | SSE | 7 | 0.00 |
| 8 | 07/03 | 17:00 | 79 | 60 | 53 | 30.12 | S | 12 | 0.00 |
| 9 | 07/03 | 16:00 | 79 | 59 | 52 | 30.15 | SSE | 7 | 0.00 |
| 10 | 07/03 | 15:00 | 79 | 57 | 48 | 30.19 | S | 8 | 0.00 |
| 11 | 07/03 | 14:00 | 79 | 56 | 46 | 30.19 | S | 12 | 0.00 |
| 12 | 07/03 | 13:00 | 77 | 53 | 45 | 30.22 | SSE | 10 | 0.00 |
| 13 | 07/03 | 12:00 | 76 | 55 | 49 | 30.24 | S | 11 | 0.00 |
| 14 | 07/03 | 11:00 | 74 | 53 | 49 | 30.27 | S | 6 | 0.00 |
| 15 | 07/03 | 10:00 | 71 | 54 | 56 | 30.27 | S | 10 | 0.00 |
| 16 | 07/03 | 09:00 | 67 | 54 | 65 | 30.28 | SSE | 8 | 0.00 |
| 17 | 07/03 | 08:00 | 60 | 54 | 82 | 30.29 | ENE | 0 | 0.00 |
| 18 | 07/03 | 07:00 | 57 | 54 | 91 | 30.29 | NE | 3 | 0.00 |
| 19 | 07/03 | 06:00 | 53 | 50 | 92 | 30.29 | NNE | 0 | 0.00 |
| 20 | 07/03 | 05:00 | 54 | 51 | 91 | 30.29 | NNW | 2 | 0.00 |
| 21 | 07/03 | 04:00 | 55 | 52 | 91 | 30.28 | SE | 1 | 0.00 |
| 22 | 07/03 | 03:00 | 56 | 52 | 89 | 30.28 | SW | 2 | 0.00 |
| 23 | 07/03 | 02:00 | 57 | 53 | 88 | 30.27 | NNW | 1 | 0.00 |
| 24 | 07/03 | 01:00 | 59 | 53 | 82 | 30.28 | N | 1 | 0.00 |